sensor_id;sensor_type;location;lat;lon;timestamp;P1;durP1;ratioP1;P2;durP2;ratioP2
15317;SDS011;7759;52.528;13.346;2023-02-15T00:01:10;16.83;;;8.00;;
15317;SDS011;7759;52.528;13.346;2023-02-15T00:03:36;14.77;;;8.13;;
15317;SDS011;7759;52.528;13.346;2023-02-15T00:06:03;19.17;;;9.13;;
15317;SDS011;7759;52.528;13.346;2023-02-15T00:08:29;21.87;;;9.47;;
15317;SDS011;7759;52.528;13.346;2023-02-15T00:11:03;17.60;;;9.33;;
15317;SDS011;7759;52.528;13.346;2023-02-15T00:13:29;18.63;;;9.13;;
15317;SDS011;7759;52.528;13.346;2023-02-15T00:15:59;16.03;;;8.87;;
15317;SDS011;7759;52.528;13.346;2023-02-15T00:18:25;18.50;;;9.50;;
15317;SDS011;7759;52.528;13.346;2023-02-15T00:20:51;19.33;;;9.47;;
15317;SDS011;7759;52.528;13.346;2023-02-15T00:23:17;18.37;;;8.43;;
15317;SDS011;7759;52.528;13.346;2023-02-15T00:25:43;18.37;;;9.57;;
15317;SDS011;7759;52.528;13.346;2023-02-15T00:28:09;20.93;;;10.20;;
15317;SDS011;7759;52.528;13.346;2023-02-15T00:30:35;22.07;;;9.97;;
15317;SDS011;7759;52.528;13.346;2023-02-15T00:33:00;18.13;;;9.43;;
15317;SDS011;7759;52.528;13.346;2023-02-15T00:35:26;19.20;;;9.53;;
15317;SDS011;7759;52.528;13.346;2023-02-15T00:37:52;20.57;;;9.73;;
15317;SDS011;7759;52.528;13.346;2023-02-15T00:40:18;21.10;;;9.40;;
15317;SDS011;7759;52.528;13.346;2023-02-15T00:42:44;22.93;;;9.60;;
15317;SDS011;7759;52.528;13.346;2023-02-15T00:45:10;17.67;;;10.33;;
15317;SDS011;7759;52.528;13.346;2023-02-15T00:47:36;16.63;;;9.07;;
15317;SDS011;7759;52.528;13.346;2023-02-15T00:50:02;18.20;;;9.27;;
15317;SDS011;7759;52.528;13.346;2023-02-15T00:52:28;22.23;;;9.67;;
15317;SDS011;7759;52.528;13.346;2023-02-15T00:54:54;22.43;;;9.97;;
15317;SDS011;7759;52.528;13.346;2023-02-15T00:57:19;17.20;;;9.03;;
15317;SDS011;7759;52.528;13.346;2023-02-15T00:59:45;21.47;;;9.77;;
15317;SDS011;7759;52.528;13.346;2023-02-15T01:02:11;21.60;;;9.43;;
15317;SDS011;7759;52.528;13.346;2023-02-15T01:04:37;21.87;;;10.57;;
15317;SDS011;7759;52.528;13.346;2023-02-15T01:07:03;19.03;;;9.73;;
15317;SDS011;7759;52.528;13.346;2023-02-15T01:09:29;18.50;;;9.70;;
15317;SDS011;7759;52.528;13.346;2023-02-15T01:11:55;18.07;;;9.50;;
15317;SDS011;7759;52.528;13.346;2023-02-15T01:14:22;15.63;;;8.37;;
15317;SDS011;7759;52.528;13.346;2023-02-15T01:16:48;18.83;;;9.33;;
15317;SDS011;7759;52.528;13.346;2023-02-15T01:19:14;21.80;;;9.80;;
15317;SDS011;7759;52.528;13.346;2023-02-15T01:21:40;19.17;;;10.03;;
15317;SDS011;7759;52.528;13.346;2023-02-15T01:24:11;18.70;;;9.53;;
15317;SDS011;7759;52.528;13.346;2023-02-15T01:26:37;20.43;;;10.07;;
15317;SDS011;7759;52.528;13.346;2023-02-15T01:29:03;19.20;;;10.90;;
15317;SDS011;7759;52.528;13.346;2023-02-15T01:31:29;20.37;;;11.43;;
15317;SDS011;7759;52.528;13.346;2023-02-15T01:33:55;17.93;;;8.80;;
15317;SDS011;7759;52.528;13.346;2023-02-15T01:36:20;18.23;;;10.43;;
15317;SDS011;7759;52.528;13.346;2023-02-15T01:38:46;19.33;;;9.90;;
15317;SDS011;7759;52.528;13.346;2023-02-15T01:41:12;25.03;;;11.83;;
15317;SDS011;7759;52.528;13.346;2023-02-15T01:43:55;18.00;;;9.50;;
15317;SDS011;7759;52.528;13.346;2023-02-15T01:46:23;22.13;;;11.63;;
15317;SDS011;7759;52.528;13.346;2023-02-15T01:48:51;23.97;;;10.50;;
15317;SDS011;7759;52.528;13.346;2023-02-15T01:51:18;20.40;;;10.37;;
15317;SDS011;7759;52.528;13.346;2023-02-15T01:53:50;23.80;;;12.07;;
15317;SDS011;7759;52.528;13.346;2023-02-15T01:56:18;22.90;;;10.87;;
15317;SDS011;7759;52.528;13.346;2023-02-15T01:58:45;22.50;;;10.97;;
15317;SDS011;7759;52.528;13.346;2023-02-15T02:01:12;25.27;;;11.60;;
15317;SDS011;7759;52.528;13.346;2023-02-15T02:06:13;20.97;;;11.03;;
15317;SDS011;7759;52.528;13.346;2023-02-15T02:08:39;23.47;;;11.33;;
15317;SDS011;7759;52.528;13.346;2023-02-15T02:11:09;23.47;;;11.40;;
15317;SDS011;7759;52.528;13.346;2023-02-15T02:13:35;27.57;;;12.40;;
15317;SDS011;7759;52.528;13.346;2023-02-15T02:16:08;22.93;;;12.23;;
15317;SDS011;7759;52.528;13.346;2023-02-15T02:18:46;23.77;;;11.93;;
15317;SDS011;7759;52.528;13.346;2023-02-15T02:21:24;24.53;;;11.93;;
15317;SDS011;7759;52.528;13.346;2023-02-15T02:26:32;27.23;;;12.50;;
15317;SDS011;7759;52.528;13.346;2023-02-15T02:29:12;29.00;;;12.87;;
15317;SDS011;7759;52.528;13.346;2023-02-15T02:34:25;27.80;;;13.30;;
15317;SDS011;7759;52.528;13.346;2023-02-15T02:36:55;24.13;;;11.87;;
15317;SDS011;7759;52.528;13.346;2023-02-15T02:41:56;28.47;;;13.03;;
15317;SDS011;7759;52.528;13.346;2023-02-15T02:44:40;27.93;;;12.60;;
15317;SDS011;7759;52.528;13.346;2023-02-15T02:47:15;26.93;;;12.63;;
15317;SDS011;7759;52.528;13.346;2023-02-15T02:49:44;26.53;;;13.13;;
15317;SDS011;7759;52.528;13.346;2023-02-15T02:54:54;28.47;;;13.17;;
15317;SDS011;7759;52.528;13.346;2023-02-15T02:57:21;27.80;;;13.97;;
15317;SDS011;7759;52.528;13.346;2023-02-15T02:59:48;29.17;;;12.43;;
15317;SDS011;7759;52.528;13.346;2023-02-15T03:02:17;31.63;;;15.17;;
15317;SDS011;7759;52.528;13.346;2023-02-15T03:04:46;33.33;;;16.27;;
15317;SDS011;7759;52.528;13.346;2023-02-15T03:07:17;34.13;;;15.17;;
15317;SDS011;7759;52.528;13.346;2023-02-15T03:09:48;33.87;;;15.97;;
15317;SDS011;7759;52.528;13.346;2023-02-15T03:12:16;31.40;;;15.03;;
15317;SDS011;7759;52.528;13.346;2023-02-15T03:14:44;26.07;;;13.33;;
15317;SDS011;7759;52.528;13.346;2023-02-15T03:17:11;28.60;;;13.00;;
15317;SDS011;7759;52.528;13.346;2023-02-15T03:19:38;42.27;;;17.53;;
15317;SDS011;7759;52.528;13.346;2023-02-15T03:22:18;33.93;;;15.27;;
15317;SDS011;7759;52.528;13.346;2023-02-15T03:24:51;33.10;;;14.97;;
15317;SDS011;7759;52.528;13.346;2023-02-15T03:27:21;34.83;;;16.07;;
15317;SDS011;7759;52.528;13.346;2023-02-15T03:29:48;33.93;;;14.97;;
15317;SDS011;7759;52.528;13.346;2023-02-15T03:32:15;34.50;;;15.77;;
15317;SDS011;7759;52.528;13.346;2023-02-15T03:34:42;36.90;;;17.23;;
15317;SDS011;7759;52.528;13.346;2023-02-15T03:37:26;36.77;;;15.80;;
15317;SDS011;7759;52.528;13.346;2023-02-15T03:39:54;36.33;;;15.87;;
15317;SDS011;7759;52.528;13.346;2023-02-15T03:42:42;34.80;;;14.90;;
15317;SDS011;7759;52.528;13.346;2023-02-15T03:45:09;37.40;;;16.20;;
15317;SDS011;7759;52.528;13.346;2023-02-15T03:47:38;32.13;;;15.67;;
15317;SDS011;7759;52.528;13.346;2023-02-15T03:50:05;33.37;;;15.50;;
15317;SDS011;7759;52.528;13.346;2023-02-15T03:52:54;38.60;;;17.00;;
15317;SDS011;7759;52.528;13.346;2023-02-15T03:55:20;42.43;;;16.97;;
15317;SDS011;7759;52.528;13.346;2023-02-15T03:57:46;41.57;;;15.80;;
15317;SDS011;7759;52.528;13.346;2023-02-15T04:00:31;36.10;;;16.07;;
15317;SDS011;7759;52.528;13.346;2023-02-15T04:03:36;35.77;;;15.40;;
15317;SDS011;7759;52.528;13.346;2023-02-15T04:06:04;36.53;;;16.03;;
15317;SDS011;7759;52.528;13.346;2023-02-15T04:08:30;37.33;;;14.23;;
15317;SDS011;7759;52.528;13.346;2023-02-15T04:11:15;36.63;;;17.07;;
15317;SDS011;7759;52.528;13.346;2023-02-15T04:13:41;34.73;;;15.73;;
15317;SDS011;7759;52.528;13.346;2023-02-15T04:16:07;37.97;;;16.10;;
15317;SDS011;7759;52.528;13.346;2023-02-15T04:21:18;37.10;;;16.23;;
15317;SDS011;7759;52.528;13.346;2023-02-15T04:24:03;40.20;;;16.73;;
15317;SDS011;7759;52.528;13.346;2023-02-15T04:26:48;38.00;;;16.53;;
15317;SDS011;7759;52.528;13.346;2023-02-15T04:29:17;29.87;;;13.70;;
15317;SDS011;7759;52.528;13.346;2023-02-15T04:31:43;38.77;;;16.03;;
15317;SDS011;7759;52.528;13.346;2023-02-15T04:34:09;35.20;;;15.07;;
15317;SDS011;7759;52.528;13.346;2023-02-15T04:36:35;34.00;;;14.07;;
15317;SDS011;7759;52.528;13.346;2023-02-15T04:39:01;33.73;;;15.07;;
15317;SDS011;7759;52.528;13.346;2023-02-15T04:41:27;37.10;;;16.37;;
15317;SDS011;7759;52.528;13.346;2023-02-15T04:43:53;44.17;;;17.60;;
15317;SDS011;7759;52.528;13.346;2023-02-15T04:46:19;37.57;;;15.30;;
15317;SDS011;7759;52.528;13.346;2023-02-15T04:48:45;35.93;;;15.80;;
15317;SDS011;7759;52.528;13.346;2023-02-15T04:51:11;38.33;;;16.87;;
15317;SDS011;7759;52.528;13.346;2023-02-15T04:53:37;35.73;;;15.10;;
15317;SDS011;7759;52.528;13.346;2023-02-15T04:56:03;36.30;;;15.47;;
15317;SDS011;7759;52.528;13.346;2023-02-15T04:58:29;32.07;;;15.23;;
15317;SDS011;7759;52.528;13.346;2023-02-15T05:00:55;38.23;;;15.77;;
15317;SDS011;7759;52.528;13.346;2023-02-15T05:03:21;34.27;;;15.47;;
15317;SDS011;7759;52.528;13.346;2023-02-15T05:05:47;39.00;;;14.47;;
15317;SDS011;7759;52.528;13.346;2023-02-15T05:08:13;36.60;;;17.30;;
15317;SDS011;7759;52.528;13.346;2023-02-15T05:10:39;35.83;;;15.70;;
15317;SDS011;7759;52.528;13.346;2023-02-15T05:13:05;35.47;;;15.20;;
15317;SDS011;7759;52.528;13.346;2023-02-15T05:15:31;34.73;;;14.83;;
15317;SDS011;7759;52.528;13.346;2023-02-15T05:17:57;36.73;;;15.07;;
15317;SDS011;7759;52.528;13.346;2023-02-15T05:20:22;33.20;;;14.77;;
15317;SDS011;7759;52.528;13.346;2023-02-15T05:22:48;35.40;;;15.53;;
15317;SDS011;7759;52.528;13.346;2023-02-15T05:25:14;38.37;;;16.70;;
15317;SDS011;7759;52.528;13.346;2023-02-15T05:27:59;30.37;;;13.33;;
15317;SDS011;7759;52.528;13.346;2023-02-15T05:30:43;33.23;;;15.97;;
15317;SDS011;7759;52.528;13.346;2023-02-15T05:33:09;33.67;;;14.40;;
15317;SDS011;7759;52.528;13.346;2023-02-15T05:35:35;35.33;;;14.73;;
15317;SDS011;7759;52.528;13.346;2023-02-15T05:38:01;37.57;;;15.80;;
15317;SDS011;7759;52.528;13.346;2023-02-15T05:40:27;40.07;;;16.00;;
15317;SDS011;7759;52.528;13.346;2023-02-15T05:42:52;35.73;;;15.07;;
15317;SDS011;7759;52.528;13.346;2023-02-15T05:45:18;37.97;;;16.07;;
15317;SDS011;7759;52.528;13.346;2023-02-15T05:47:44;39.87;;;14.83;;
15317;SDS011;7759;52.528;13.346;2023-02-15T05:50:10;31.50;;;13.97;;
15317;SDS011;7759;52.528;13.346;2023-02-15T05:52:36;32.37;;;14.50;;
15317;SDS011;7759;52.528;13.346;2023-02-15T05:55:03;32.30;;;14.30;;
15317;SDS011;7759;52.528;13.346;2023-02-15T05:57:29;33.83;;;15.97;;
15317;SDS011;7759;52.528;13.346;2023-02-15T05:59:55;32.83;;;14.67;;
15317;SDS011;7759;52.528;13.346;2023-02-15T06:02:20;30.23;;;14.10;;
15317;SDS011;7759;52.528;13.346;2023-02-15T06:04:46;37.87;;;15.00;;
15317;SDS011;7759;52.528;13.346;2023-02-15T06:07:12;32.37;;;13.63;;
15317;SDS011;7759;52.528;13.346;2023-02-15T06:09:38;35.07;;;13.47;;
15317;SDS011;7759;52.528;13.346;2023-02-15T06:12:04;36.93;;;14.83;;
15317;SDS011;7759;52.528;13.346;2023-02-15T06:14:30;35.30;;;15.47;;
15317;SDS011;7759;52.528;13.346;2023-02-15T06:16:56;41.97;;;16.30;;
15317;SDS011;7759;52.528;13.346;2023-02-15T06:19:22;44.80;;;17.87;;
15317;SDS011;7759;52.528;13.346;2023-02-15T06:21:48;39.87;;;16.63;;
15317;SDS011;7759;52.528;13.346;2023-02-15T06:24:14;36.67;;;15.90;;
15317;SDS011;7759;52.528;13.346;2023-02-15T06:26:40;39.83;;;16.00;;
15317;SDS011;7759;52.528;13.346;2023-02-15T06:29:06;44.80;;;17.63;;
15317;SDS011;7759;52.528;13.346;2023-02-15T06:31:32;40.57;;;16.30;;
15317;SDS011;7759;52.528;13.346;2023-02-15T06:33:58;38.47;;;14.10;;
15317;SDS011;7759;52.528;13.346;2023-02-15T06:36:27;39.17;;;14.97;;
15317;SDS011;7759;52.528;13.346;2023-02-15T06:38:54;39.67;;;15.40;;
15317;SDS011;7759;52.528;13.346;2023-02-15T06:41:19;49.33;;;18.17;;
15317;SDS011;7759;52.528;13.346;2023-02-15T06:43:45;44.77;;;17.07;;
15317;SDS011;7759;52.528;13.346;2023-02-15T06:46:11;39.67;;;17.07;;
15317;SDS011;7759;52.528;13.346;2023-02-15T06:48:37;45.53;;;18.47;;
15317;SDS011;7759;52.528;13.346;2023-02-15T06:51:03;47.13;;;16.30;;
15317;SDS011;7759;52.528;13.346;2023-02-15T06:53:29;44.33;;;16.60;;
15317;SDS011;7759;52.528;13.346;2023-02-15T06:56:04;46.97;;;17.13;;
15317;SDS011;7759;52.528;13.346;2023-02-15T06:58:35;47.33;;;17.47;;
15317;SDS011;7759;52.528;13.346;2023-02-15T07:01:01;40.40;;;16.20;;
15317;SDS011;7759;52.528;13.346;2023-02-15T07:03:27;45.13;;;16.33;;
15317;SDS011;7759;52.528;13.346;2023-02-15T07:05:56;36.27;;;14.97;;
15317;SDS011;7759;52.528;13.346;2023-02-15T07:08:23;48.17;;;16.73;;
15317;SDS011;7759;52.528;13.346;2023-02-15T07:10:49;43.27;;;15.33;;
15317;SDS011;7759;52.528;13.346;2023-02-15T07:13:16;43.97;;;15.10;;
15317;SDS011;7759;52.528;13.346;2023-02-15T07:15:42;40.73;;;16.07;;
15317;SDS011;7759;52.528;13.346;2023-02-15T07:18:08;40.07;;;15.77;;
15317;SDS011;7759;52.528;13.346;2023-02-15T07:20:35;44.67;;;16.67;;
15317;SDS011;7759;52.528;13.346;2023-02-15T07:23:01;41.57;;;16.50;;
15317;SDS011;7759;52.528;13.346;2023-02-15T07:25:27;45.13;;;16.37;;
15317;SDS011;7759;52.528;13.346;2023-02-15T07:27:57;40.73;;;16.87;;
15317;SDS011;7759;52.528;13.346;2023-02-15T07:30:23;40.33;;;14.73;;
15317;SDS011;7759;52.528;13.346;2023-02-15T07:32:49;38.57;;;16.17;;
15317;SDS011;7759;52.528;13.346;2023-02-15T07:35:33;44.97;;;18.23;;
15317;SDS011;7759;52.528;13.346;2023-02-15T07:38:00;39.73;;;16.27;;
15317;SDS011;7759;52.528;13.346;2023-02-15T07:40:25;41.93;;;17.00;;
15317;SDS011;7759;52.528;13.346;2023-02-15T07:42:51;54.57;;;18.60;;
15317;SDS011;7759;52.528;13.346;2023-02-15T07:45:19;38.37;;;15.77;;
15317;SDS011;7759;52.528;13.346;2023-02-15T07:47:45;40.40;;;16.07;;
15317;SDS011;7759;52.528;13.346;2023-02-15T07:50:12;47.13;;;15.87;;
15317;SDS011;7759;52.528;13.346;2023-02-15T07:52:38;42.83;;;15.60;;
15317;SDS011;7759;52.528;13.346;2023-02-15T07:55:04;39.77;;;14.70;;
15317;SDS011;7759;52.528;13.346;2023-02-15T07:57:30;41.40;;;15.57;;
15317;SDS011;7759;52.528;13.346;2023-02-15T07:59:56;45.03;;;16.17;;
15317;SDS011;7759;52.528;13.346;2023-02-15T08:02:21;38.77;;;15.17;;
15317;SDS011;7759;52.528;13.346;2023-02-15T08:04:47;36.93;;;13.80;;
15317;SDS011;7759;52.528;13.346;2023-02-15T08:07:13;39.50;;;16.07;;
15317;SDS011;7759;52.528;13.346;2023-02-15T08:09:39;33.67;;;13.53;;
15317;SDS011;7759;52.528;13.346;2023-02-15T08:12:05;32.27;;;13.13;;
15317;SDS011;7759;52.528;13.346;2023-02-15T08:14:31;30.90;;;12.93;;
15317;SDS011;7759;52.528;13.346;2023-02-15T08:16:59;36.13;;;13.47;;
15317;SDS011;7759;52.528;13.346;2023-02-15T08:19:30;35.17;;;14.13;;
15317;SDS011;7759;52.528;13.346;2023-02-15T08:22:00;35.07;;;14.43;;
15317;SDS011;7759;52.528;13.346;2023-02-15T08:24:27;42.67;;;16.80;;
15317;SDS011;7759;52.528;13.346;2023-02-15T08:26:53;38.10;;;15.27;;
15317;SDS011;7759;52.528;13.346;2023-02-15T08:29:20;34.43;;;13.60;;
15317;SDS011;7759;52.528;13.346;2023-02-15T08:31:52;34.77;;;14.03;;
15317;SDS011;7759;52.528;13.346;2023-02-15T08:34:18;36.53;;;15.10;;
15317;SDS011;7759;52.528;13.346;2023-02-15T08:36:44;32.67;;;13.67;;
15317;SDS011;7759;52.528;13.346;2023-02-15T08:39:11;43.43;;;17.00;;
15317;SDS011;7759;52.528;13.346;2023-02-15T08:41:38;38.40;;;14.70;;
15317;SDS011;7759;52.528;13.346;2023-02-15T08:44:05;39.77;;;14.93;;
15317;SDS011;7759;52.528;13.346;2023-02-15T08:46:32;37.00;;;14.30;;
15317;SDS011;7759;52.528;13.346;2023-02-15T08:48:58;32.33;;;13.47;;
15317;SDS011;7759;52.528;13.346;2023-02-15T08:51:26;39.47;;;15.03;;
15317;SDS011;7759;52.528;13.346;2023-02-15T08:53:54;31.40;;;12.30;;
15317;SDS011;7759;52.528;13.346;2023-02-15T08:56:25;36.63;;;12.23;;
15317;SDS011;7759;52.528;13.346;2023-02-15T08:58:51;36.80;;;16.00;;
15317;SDS011;7759;52.528;13.346;2023-02-15T09:01:18;30.07;;;13.03;;
15317;SDS011;7759;52.528;13.346;2023-02-15T09:03:49;31.47;;;13.50;;
15317;SDS011;7759;52.528;13.346;2023-02-15T09:06:18;29.10;;;12.27;;
15317;SDS011;7759;52.528;13.346;2023-02-15T09:08:44;34.60;;;14.30;;
15317;SDS011;7759;52.528;13.346;2023-02-15T09:11:11;32.63;;;12.77;;
15317;SDS011;7759;52.528;13.346;2023-02-15T09:13:37;28.30;;;11.80;;
15317;SDS011;7759;52.528;13.346;2023-02-15T09:16:04;39.53;;;15.10;;
15317;SDS011;7759;52.528;13.346;2023-02-15T09:18:31;33.40;;;13.07;;
15317;SDS011;7759;52.528;13.346;2023-02-15T09:21:03;31.73;;;14.23;;
15317;SDS011;7759;52.528;13.346;2023-02-15T09:23:29;29.33;;;13.10;;
15317;SDS011;7759;52.528;13.346;2023-02-15T09:25:55;36.00;;;12.83;;
15317;SDS011;7759;52.528;13.346;2023-02-15T09:28:21;33.23;;;12.67;;
15317;SDS011;7759;52.528;13.346;2023-02-15T09:30:47;34.90;;;13.57;;
15317;SDS011;7759;52.528;13.346;2023-02-15T09:33:13;28.07;;;12.67;;
15317;SDS011;7759;52.528;13.346;2023-02-15T09:35:39;27.20;;;11.77;;
15317;SDS011;7759;52.528;13.346;2023-02-15T09:38:04;33.53;;;13.87;;
15317;SDS011;7759;52.528;13.346;2023-02-15T09:40:31;31.80;;;13.90;;
15317;SDS011;7759;52.528;13.346;2023-02-15T09:43:03;28.77;;;12.50;;
15317;SDS011;7759;52.528;13.346;2023-02-15T09:48:31;25.70;;;11.73;;
15317;SDS011;7759;52.528;13.346;2023-02-15T09:51:20;31.10;;;13.40;;
15317;SDS011;7759;52.528;13.346;2023-02-15T09:53:59;25.37;;;11.33;;
15317;SDS011;7759;52.528;13.346;2023-02-15T09:56:50;34.40;;;13.80;;
15317;SDS011;7759;52.528;13.346;2023-02-15T09:59:33;31.17;;;12.97;;
15317;SDS011;7759;52.528;13.346;2023-02-15T10:05:09;26.73;;;12.70;;
15317;SDS011;7759;52.528;13.346;2023-02-15T10:07:43;24.93;;;11.60;;
15317;SDS011;7759;52.528;13.346;2023-02-15T10:10:17;32.73;;;14.40;;
15317;SDS011;7759;52.528;13.346;2023-02-15T10:12:52;25.60;;;11.93;;
15317;SDS011;7759;52.528;13.346;2023-02-15T10:15:23;26.17;;;11.77;;
15317;SDS011;7759;52.528;13.346;2023-02-15T10:20:49;29.17;;;12.87;;
15317;SDS011;7759;52.528;13.346;2023-02-15T10:23:21;29.00;;;12.60;;
15317;SDS011;7759;52.528;13.346;2023-02-15T10:25:56;28.77;;;13.43;;
15317;SDS011;7759;52.528;13.346;2023-02-15T10:31:11;25.33;;;12.27;;
15317;SDS011;7759;52.528;13.346;2023-02-15T10:33:38;28.20;;;12.97;;
15317;SDS011;7759;52.528;13.346;2023-02-15T10:36:07;29.00;;;13.93;;
15317;SDS011;7759;52.528;13.346;2023-02-15T10:41:20;21.90;;;11.00;;
15317;SDS011;7759;52.528;13.346;2023-02-15T10:43:53;31.93;;;13.33;;
15317;SDS011;7759;52.528;13.346;2023-02-15T10:46:33;25.53;;;11.53;;
15317;SDS011;7759;52.528;13.346;2023-02-15T10:51:50;28.10;;;12.40;;
15317;SDS011;7759;52.528;13.346;2023-02-15T10:59:28;21.43;;;10.80;;
15317;SDS011;7759;52.528;13.346;2023-02-15T11:02:59;25.57;;;12.87;;
15317;SDS011;7759;52.528;13.346;2023-02-15T11:04:53;24.30;;;12.20;;
15317;SDS011;7759;52.528;13.346;2023-02-15T11:07:23;29.33;;;12.27;;
15317;SDS011;7759;52.528;13.346;2023-02-15T11:09:54;24.00;;;12.00;;
15317;SDS011;7759;52.528;13.346;2023-02-15T11:12:23;29.13;;;11.93;;
15317;SDS011;7759;52.528;13.346;2023-02-15T11:14:57;22.90;;;12.10;;
15317;SDS011;7759;52.528;13.346;2023-02-15T11:17:25;25.23;;;12.00;;
15317;SDS011;7759;52.528;13.346;2023-02-15T11:22:30;26.73;;;11.33;;
15317;SDS011;7759;52.528;13.346;2023-02-15T11:24:57;23.60;;;11.70;;
15317;SDS011;7759;52.528;13.346;2023-02-15T11:27:25;20.43;;;10.67;;
15317;SDS011;7759;52.528;13.346;2023-02-15T11:30:02;27.50;;;11.83;;
15317;SDS011;7759;52.528;13.346;2023-02-15T11:32:31;28.80;;;11.73;;
15317;SDS011;7759;52.528;13.346;2023-02-15T11:37:46;24.93;;;11.83;;
15317;SDS011;7759;52.528;13.346;2023-02-15T11:40:15;22.90;;;10.67;;
15317;SDS011;7759;52.528;13.346;2023-02-15T11:42:43;27.90;;;12.40;;
15317;SDS011;7759;52.528;13.346;2023-02-15T11:45:17;20.13;;;10.50;;
15317;SDS011;7759;52.528;13.346;2023-02-15T11:47:44;22.33;;;10.53;;
15317;SDS011;7759;52.528;13.346;2023-02-15T11:50:13;30.43;;;14.57;;
15317;SDS011;7759;52.528;13.346;2023-02-15T11:52:39;24.43;;;10.90;;
15317;SDS011;7759;52.528;13.346;2023-02-15T11:55:09;25.27;;;12.57;;
15317;SDS011;7759;52.528;13.346;2023-02-15T11:57:38;24.00;;;12.23;;
15317;SDS011;7759;52.528;13.346;2023-02-15T12:02:41;27.83;;;13.23;;
15317;SDS011;7759;52.528;13.346;2023-02-15T12:05:11;23.23;;;12.07;;
15317;SDS011;7759;52.528;13.346;2023-02-15T12:07:43;20.47;;;10.53;;
15317;SDS011;7759;52.528;13.346;2023-02-15T12:10:28;27.87;;;13.47;;
15317;SDS011;7759;52.528;13.346;2023-02-15T12:13:08;21.63;;;9.37;;
15317;SDS011;7759;52.528;13.346;2023-02-15T12:15:35;22.20;;;11.00;;
15317;SDS011;7759;52.528;13.346;2023-02-15T12:18:02;23.13;;;10.37;;
15317;SDS011;7759;52.528;13.346;2023-02-15T12:20:29;19.10;;;10.13;;
15317;SDS011;7759;52.528;13.346;2023-02-15T12:25:40;22.17;;;11.20;;
15317;SDS011;7759;52.528;13.346;2023-02-15T12:28:26;24.07;;;11.27;;
15317;SDS011;7759;52.528;13.346;2023-02-15T12:30:55;20.33;;;9.23;;
15317;SDS011;7759;52.528;13.346;2023-02-15T12:33:26;19.13;;;10.73;;
15317;SDS011;7759;52.528;13.346;2023-02-15T12:38:25;21.93;;;10.90;;
15317;SDS011;7759;52.528;13.346;2023-02-15T12:41:00;23.77;;;11.23;;
15317;SDS011;7759;52.528;13.346;2023-02-15T12:43:27;31.77;;;11.73;;
15317;SDS011;7759;52.528;13.346;2023-02-15T12:45:59;23.77;;;10.97;;
15317;SDS011;7759;52.528;13.346;2023-02-15T12:48:39;16.97;;;8.87;;
15317;SDS011;7759;52.528;13.346;2023-02-15T12:51:09;18.47;;;8.90;;
15317;SDS011;7759;52.528;13.346;2023-02-15T12:53:39;21.40;;;10.50;;
15317;SDS011;7759;52.528;13.346;2023-02-15T12:56:06;17.43;;;9.53;;
15317;SDS011;7759;52.528;13.346;2023-02-15T12:58:33;17.63;;;9.17;;
15317;SDS011;7759;52.528;13.346;2023-02-15T13:03:37;13.77;;;8.23;;
15317;SDS011;7759;52.528;13.346;2023-02-15T13:06:04;15.83;;;8.63;;
15317;SDS011;7759;52.528;13.346;2023-02-15T13:08:33;14.27;;;7.90;;
15317;SDS011;7759;52.528;13.346;2023-02-15T13:11:02;14.83;;;8.07;;
15317;SDS011;7759;52.528;13.346;2023-02-15T13:13:29;16.97;;;9.00;;
15317;SDS011;7759;52.528;13.346;2023-02-15T13:15:58;15.67;;;7.63;;
15317;SDS011;7759;52.528;13.346;2023-02-15T13:23:34;16.17;;;8.67;;
15317;SDS011;7759;52.528;13.346;2023-02-15T13:26:02;17.73;;;9.60;;
15317;SDS011;7759;52.528;13.346;2023-02-15T13:29:04;12.83;;;7.67;;
15317;SDS011;7759;52.528;13.346;2023-02-15T13:31:23;14.53;;;7.93;;
15317;SDS011;7759;52.528;13.346;2023-02-15T13:33:51;14.50;;;7.93;;
15317;SDS011;7759;52.528;13.346;2023-02-15T13:36:29;14.03;;;8.13;;
15317;SDS011;7759;52.528;13.346;2023-02-15T13:39:07;14.00;;;7.80;;
15317;SDS011;7759;52.528;13.346;2023-02-15T13:49:49;16.00;;;8.70;;
15317;SDS011;7759;52.528;13.346;2023-02-15T13:52:20;16.43;;;9.30;;
15317;SDS011;7759;52.528;13.346;2023-02-15T13:54:59;9.93;;;5.37;;
15317;SDS011;7759;52.528;13.346;2023-02-15T13:57:44;8.33;;;5.50;;
15317;SDS011;7759;52.528;13.346;2023-02-15T14:00:30;13.37;;;6.73;;
15317;SDS011;7759;52.528;13.346;2023-02-15T14:03:16;12.73;;;7.20;;
15317;SDS011;7759;52.528;13.346;2023-02-15T14:05:56;17.90;;;9.83;;
15317;SDS011;7759;52.528;13.346;2023-02-15T14:08:33;11.27;;;6.00;;
15317;SDS011;7759;52.528;13.346;2023-02-15T14:11:11;19.20;;;8.37;;
15317;SDS011;7759;52.528;13.346;2023-02-15T14:13:47;16.73;;;8.90;;
15317;SDS011;7759;52.528;13.346;2023-02-15T14:18:49;12.73;;;6.10;;
15317;SDS011;7759;52.528;13.346;2023-02-15T14:21:18;12.73;;;7.00;;
15317;SDS011;7759;52.528;13.346;2023-02-15T14:24:07;13.30;;;7.00;;
15317;SDS011;7759;52.528;13.346;2023-02-15T14:29:42;15.83;;;8.43;;
15317;SDS011;7759;52.528;13.346;2023-02-15T14:32:08;15.77;;;7.80;;
15317;SDS011;7759;52.528;13.346;2023-02-15T14:37:04;12.57;;;7.27;;
15317;SDS011;7759;52.528;13.346;2023-02-15T14:39:40;14.17;;;7.20;;
15317;SDS011;7759;52.528;13.346;2023-02-15T14:42:34;15.07;;;8.10;;
15317;SDS011;7759;52.528;13.346;2023-02-15T14:45:05;15.40;;;7.73;;
15317;SDS011;7759;52.528;13.346;2023-02-15T14:47:39;15.30;;;7.07;;
15317;SDS011;7759;52.528;13.346;2023-02-15T14:55:35;13.30;;;7.13;;
15317;SDS011;7759;52.528;13.346;2023-02-15T14:58:01;13.57;;;7.17;;
15317;SDS011;7759;52.528;13.346;2023-02-15T15:00:36;14.27;;;6.87;;
15317;SDS011;7759;52.528;13.346;2023-02-15T15:03:05;15.17;;;7.47;;
15317;SDS011;7759;52.528;13.346;2023-02-15T15:05:35;13.50;;;7.13;;
15317;SDS011;7759;52.528;13.346;2023-02-15T15:08:21;12.57;;;7.17;;
15317;SDS011;7759;52.528;13.346;2023-02-15T15:10:48;10.23;;;6.50;;
15317;SDS011;7759;52.528;13.346;2023-02-15T15:15:56;12.57;;;7.00;;
15317;SDS011;7759;52.528;13.346;2023-02-15T15:21:07;14.10;;;8.03;;
15317;SDS011;7759;52.528;13.346;2023-02-15T15:23:38;13.13;;;7.63;;
15317;SDS011;7759;52.528;13.346;2023-02-15T15:26:46;13.53;;;7.27;;
15317;SDS011;7759;52.528;13.346;2023-02-15T15:28:54;11.60;;;6.67;;
15317;SDS011;7759;52.528;13.346;2023-02-15T15:31:28;12.77;;;7.53;;
15317;SDS011;7759;52.528;13.346;2023-02-15T15:34:05;17.07;;;7.27;;
15317;SDS011;7759;52.528;13.346;2023-02-15T15:39:42;14.70;;;7.30;;
15317;SDS011;7759;52.528;13.346;2023-02-15T15:42:39;16.87;;;9.23;;
15317;SDS011;7759;52.528;13.346;2023-02-15T15:47:44;11.70;;;7.03;;
15317;SDS011;7759;52.528;13.346;2023-02-15T15:50:14;13.13;;;7.20;;
15317;SDS011;7759;52.528;13.346;2023-02-15T15:52:43;14.20;;;6.57;;
15317;SDS011;7759;52.528;13.346;2023-02-15T15:55:14;12.20;;;6.80;;
15317;SDS011;7759;52.528;13.346;2023-02-15T15:57:41;16.10;;;7.67;;
15317;SDS011;7759;52.528;13.346;2023-02-15T16:03:03;10.80;;;6.97;;
15317;SDS011;7759;52.528;13.346;2023-02-15T16:05:36;11.77;;;7.13;;
15317;SDS011;7759;52.528;13.346;2023-02-15T16:08:02;13.00;;;6.37;;
15317;SDS011;7759;52.528;13.346;2023-02-15T16:10:29;14.43;;;5.73;;
15317;SDS011;7759;52.528;13.346;2023-02-15T16:12:57;10.90;;;6.13;;
15317;SDS011;7759;52.528;13.346;2023-02-15T16:17:56;11.87;;;6.80;;